sensor_id;sensor_type;location;lat;lon;timestamp;temperature;humidity
36654;DHT22;22650;49.350;20.898;2023-08-20T00:00:32;19.50;99.90
36654;DHT22;22650;49.350;20.898;2023-08-20T00:03:11;19.50;99.90
36654;DHT22;22650;49.350;20.898;2023-08-20T00:05:45;19.50;99.90
36654;DHT22;22650;49.350;20.898;2023-08-20T00:08:20;19.50;99.90
36654;DHT22;22650;49.350;20.898;2023-08-20T00:10:54;19.40;99.90
36654;DHT22;22650;49.350;20.898;2023-08-20T00:13:27;19.40;99.90
36654;DHT22;22650;49.350;20.898;2023-08-20T00:16:01;19.40;99.90
36654;DHT22;22650;49.350;20.898;2023-08-20T00:18:36;19.40;99.90
36654;DHT22;22650;49.350;20.898;2023-08-20T00:21:11;19.40;99.90
36654;DHT22;22650;49.350;20.898;2023-08-20T00:23:46;19.30;99.90
36654;DHT22;22650;49.350;20.898;2023-08-20T00:26:20;19.30;99.90
36654;DHT22;22650;49.350;20.898;2023-08-20T00:28:54;19.30;99.90
36654;DHT22;22650;49.350;20.898;2023-08-20T00:31:27;19.30;99.90
36654;DHT22;22650;49.350;20.898;2023-08-20T00:34:01;19.20;99.90
36654;DHT22;22650;49.350;20.898;2023-08-20T00:36:38;19.20;99.90
36654;DHT22;22650;49.350;20.898;2023-08-20T00:39:14;19.20;99.90
36654;DHT22;22650;49.350;20.898;2023-08-20T00:41:47;19.20;99.90
36654;DHT22;22650;49.350;20.898;2023-08-20T00:44:21;19.20;99.90
36654;DHT22;22650;49.350;20.898;2023-08-20T00:46:55;19.20;99.90
36654;DHT22;22650;49.350;20.898;2023-08-20T00:49:29;19.20;99.90
36654;DHT22;22650;49.350;20.898;2023-08-20T00:52:04;19.20;99.90
36654;DHT22;22650;49.350;20.898;2023-08-20T00:54:40;19.20;99.90
36654;DHT22;22650;49.350;20.898;2023-08-20T00:57:14;19.20;99.90
36654;DHT22;22650;49.350;20.898;2023-08-20T00:59:48;19.30;99.90
36654;DHT22;22650;49.350;20.898;2023-08-20T01:02:25;19.30;99.90
36654;DHT22;22650;49.350;20.898;2023-08-20T01:05:00;19.30;99.90
36654;DHT22;22650;49.350;20.898;2023-08-20T01:07:43;19.30;99.90
36654;DHT22;22650;49.350;20.898;2023-08-20T01:10:28;19.30;99.90
36654;DHT22;22650;49.350;20.898;2023-08-20T01:13:03;19.30;99.90
36654;DHT22;22650;49.350;20.898;2023-08-20T01:15:37;19.30;99.90
36654;DHT22;22650;49.350;20.898;2023-08-20T01:18:11;19.30;99.90
36654;DHT22;22650;49.350;20.898;2023-08-20T01:20:51;19.40;99.90
36654;DHT22;22650;49.350;20.898;2023-08-20T01:23:48;19.40;99.90
36654;DHT22;22650;49.350;20.898;2023-08-20T01:26:47;19.40;99.90
36654;DHT22;22650;49.350;20.898;2023-08-20T01:29:23;19.40;99.90
36654;DHT22;22650;49.350;20.898;2023-08-20T01:31:58;19.30;99.90
36654;DHT22;22650;49.350;20.898;2023-08-20T01:34:32;19.40;99.90
36654;DHT22;22650;49.350;20.898;2023-08-20T01:37:06;19.30;99.90
36654;DHT22;22650;49.350;20.898;2023-08-20T01:39:40;19.30;99.90
36654;DHT22;22650;49.350;20.898;2023-08-20T01:42:14;19.30;99.90
36654;DHT22;22650;49.350;20.898;2023-08-20T01:44:49;19.40;99.90
36654;DHT22;22650;49.350;20.898;2023-08-20T01:47:22;19.40;99.90
36654;DHT22;22650;49.350;20.898;2023-08-20T01:49:57;19.40;99.90
36654;DHT22;22650;49.350;20.898;2023-08-20T01:52:30;19.40;99.90
36654;DHT22;22650;49.350;20.898;2023-08-20T01:55:05;19.40;99.90
36654;DHT22;22650;49.350;20.898;2023-08-20T01:57:38;19.40;99.90
36654;DHT22;22650;49.350;20.898;2023-08-20T02:00:14;19.40;99.90
36654;DHT22;22650;49.350;20.898;2023-08-20T02:02:48;19.40;99.90
36654;DHT22;22650;49.350;20.898;2023-08-20T02:05:21;19.40;99.90
36654;DHT22;22650;49.350;20.898;2023-08-20T02:07:55;19.40;99.90
36654;DHT22;22650;49.350;20.898;2023-08-20T02:10:29;19.40;99.90
36654;DHT22;22650;49.350;20.898;2023-08-20T02:13:03;19.40;99.90
36654;DHT22;22650;49.350;20.898;2023-08-20T02:15:38;19.40;99.90
36654;DHT22;22650;49.350;20.898;2023-08-20T02:18:12;19.30;99.90
36654;DHT22;22650;49.350;20.898;2023-08-20T02:20:48;19.30;99.90
36654;DHT22;22650;49.350;20.898;2023-08-20T02:23:22;19.30;99.90
36654;DHT22;22650;49.350;20.898;2023-08-20T02:25:56;19.30;99.90
36654;DHT22;22650;49.350;20.898;2023-08-20T02:28:30;19.30;99.90
36654;DHT22;22650;49.350;20.898;2023-08-20T02:31:05;19.30;99.90
36654;DHT22;22650;49.350;20.898;2023-08-20T02:33:39;19.20;99.90
36654;DHT22;22650;49.350;20.898;2023-08-20T02:36:16;19.20;99.90
36654;DHT22;22650;49.350;20.898;2023-08-20T02:38:50;19.20;99.90
36654;DHT22;22650;49.350;20.898;2023-08-20T02:41:24;19.20;99.90
36654;DHT22;22650;49.350;20.898;2023-08-20T02:43:57;19.20;99.90
36654;DHT22;22650;49.350;20.898;2023-08-20T02:46:33;19.20;99.90
36654;DHT22;22650;49.350;20.898;2023-08-20T02:49:06;19.10;99.90
36654;DHT22;22650;49.350;20.898;2023-08-20T02:51:40;19.10;99.90
36654;DHT22;22650;49.350;20.898;2023-08-20T02:54:14;19.20;99.90
36654;DHT22;22650;49.350;20.898;2023-08-20T02:56:48;19.10;99.90
36654;DHT22;22650;49.350;20.898;2023-08-20T02:59:22;19.20;99.90
36654;DHT22;22650;49.350;20.898;2023-08-20T03:01:57;19.10;99.90
36654;DHT22;22650;49.350;20.898;2023-08-20T03:04:31;19.10;99.90
36654;DHT22;22650;49.350;20.898;2023-08-20T03:07:05;19.00;99.90
36654;DHT22;22650;49.350;20.898;2023-08-20T03:09:38;19.00;99.90
36654;DHT22;22650;49.350;20.898;2023-08-20T03:12:12;19.00;99.90
36654;DHT22;22650;49.350;20.898;2023-08-20T03:14:45;18.90;99.90
36654;DHT22;22650;49.350;20.898;2023-08-20T03:17:20;19.00;99.90
36654;DHT22;22650;49.350;20.898;2023-08-20T03:19:55;19.00;99.90
36654;DHT22;22650;49.350;20.898;2023-08-20T03:22:29;18.90;99.90
36654;DHT22;22650;49.350;20.898;2023-08-20T03:25:03;19.00;99.90
36654;DHT22;22650;49.350;20.898;2023-08-20T03:27:37;19.00;99.90
36654;DHT22;22650;49.350;20.898;2023-08-20T03:30:11;18.90;99.90
36654;DHT22;22650;49.350;20.898;2023-08-20T03:32:49;18.90;99.90
36654;DHT22;22650;49.350;20.898;2023-08-20T03:35:23;18.90;99.90
36654;DHT22;22650;49.350;20.898;2023-08-20T03:37:57;18.90;99.90
36654;DHT22;22650;49.350;20.898;2023-08-20T03:40:32;18.90;99.90
36654;DHT22;22650;49.350;20.898;2023-08-20T03:43:07;18.90;99.90
36654;DHT22;22650;49.350;20.898;2023-08-20T03:45:41;18.80;99.90
36654;DHT22;22650;49.350;20.898;2023-08-20T03:48:16;18.80;99.90
36654;DHT22;22650;49.350;20.898;2023-08-20T03:50:50;18.80;99.90
36654;DHT22;22650;49.350;20.898;2023-08-20T03:53:24;18.80;99.90
36654;DHT22;22650;49.350;20.898;2023-08-20T03:55:57;18.80;99.90
36654;DHT22;22650;49.350;20.898;2023-08-20T03:58:31;18.80;99.90
36654;DHT22;22650;49.350;20.898;2023-08-20T04:01:07;18.80;99.90
36654;DHT22;22650;49.350;20.898;2023-08-20T04:03:42;18.80;99.90
36654;DHT22;22650;49.350;20.898;2023-08-20T04:06:15;18.80;99.90
36654;DHT22;22650;49.350;20.898;2023-08-20T04:08:49;18.80;99.90
36654;DHT22;22650;49.350;20.898;2023-08-20T04:11:24;18.80;99.90
36654;DHT22;22650;49.350;20.898;2023-08-20T04:13:58;18.80;99.90
36654;DHT22;22650;49.350;20.898;2023-08-20T04:16:32;18.80;99.90
36654;DHT22;22650;49.350;20.898;2023-08-20T04:19:07;18.80;99.90
36654;DHT22;22650;49.350;20.898;2023-08-20T04:21:41;18.70;99.90
36654;DHT22;22650;49.350;20.898;2023-08-20T04:24:16;18.70;99.90
36654;DHT22;22650;49.350;20.898;2023-08-20T04:26:49;18.70;99.90
36654;DHT22;22650;49.350;20.898;2023-08-20T04:29:29;18.70;99.90
36654;DHT22;22650;49.350;20.898;2023-08-20T04:32:04;18.80;99.90
36654;DHT22;22650;49.350;20.898;2023-08-20T04:34:39;18.70;99.90
36654;DHT22;22650;49.350;20.898;2023-08-20T04:37:13;18.80;99.90
36654;DHT22;22650;49.350;20.898;2023-08-20T04:39:46;18.80;99.90
36654;DHT22;22650;49.350;20.898;2023-08-20T04:42:21;18.80;99.90
36654;DHT22;22650;49.350;20.898;2023-08-20T04:44:55;18.70;99.90
36654;DHT22;22650;49.350;20.898;2023-08-20T04:47:30;18.80;99.90
36654;DHT22;22650;49.350;20.898;2023-08-20T04:50:07;18.80;99.90
36654;DHT22;22650;49.350;20.898;2023-08-20T04:52:41;18.70;99.90
36654;DHT22;22650;49.350;20.898;2023-08-20T04:55:15;18.70;99.90
36654;DHT22;22650;49.350;20.898;2023-08-20T04:57:49;18.70;99.90
36654;DHT22;22650;49.350;20.898;2023-08-20T05:00:22;18.70;99.90
36654;DHT22;22650;49.350;20.898;2023-08-20T05:03:09;18.70;99.90
36654;DHT22;22650;49.350;20.898;2023-08-20T05:05:49;18.70;99.90
36654;DHT22;22650;49.350;20.898;2023-08-20T05:08:23;18.70;99.90
36654;DHT22;22650;49.350;20.898;2023-08-20T05:10:57;18.70;99.90
36654;DHT22;22650;49.350;20.898;2023-08-20T05:13:30;18.70;99.90
36654;DHT22;22650;49.350;20.898;2023-08-20T05:16:05;18.80;99.90
36654;DHT22;22650;49.350;20.898;2023-08-20T05:18:38;18.80;99.90
36654;DHT22;22650;49.350;20.898;2023-08-20T05:21:13;18.80;99.90
36654;DHT22;22650;49.350;20.898;2023-08-20T05:23:47;18.80;99.90
36654;DHT22;22650;49.350;20.898;2023-08-20T05:26:22;18.80;99.90
36654;DHT22;22650;49.350;20.898;2023-08-20T05:28:55;18.90;99.90
36654;DHT22;22650;49.350;20.898;2023-08-20T05:31:29;18.90;99.90
36654;DHT22;22650;49.350;20.898;2023-08-20T05:34:03;18.90;99.90
36654;DHT22;22650;49.350;20.898;2023-08-20T05:36:38;18.90;99.90
36654;DHT22;22650;49.350;20.898;2023-08-20T05:39:14;18.90;99.90
36654;DHT22;22650;49.350;20.898;2023-08-20T05:41:48;19.00;99.90
36654;DHT22;22650;49.350;20.898;2023-08-20T05:44:24;19.00;99.90
36654;DHT22;22650;49.350;20.898;2023-08-20T05:46:57;19.10;99.90
36654;DHT22;22650;49.350;20.898;2023-08-20T05:49:31;19.10;99.90
36654;DHT22;22650;49.350;20.898;2023-08-20T05:52:07;19.20;99.90
36654;DHT22;22650;49.350;20.898;2023-08-20T05:54:42;19.30;99.90
36654;DHT22;22650;49.350;20.898;2023-08-20T05:57:15;19.40;99.90
36654;DHT22;22650;49.350;20.898;2023-08-20T05:59:49;19.50;99.90
36654;DHT22;22650;49.350;20.898;2023-08-20T06:02:23;19.50;99.90
36654;DHT22;22650;49.350;20.898;2023-08-20T06:04:57;19.60;99.90
36654;DHT22;22650;49.350;20.898;2023-08-20T06:07:32;19.60;99.90
36654;DHT22;22650;49.350;20.898;2023-08-20T06:10:07;19.70;99.90
36654;DHT22;22650;49.350;20.898;2023-08-20T06:12:40;19.70;99.90
36654;DHT22;22650;49.350;20.898;2023-08-20T06:15:14;19.80;99.90
36654;DHT22;22650;49.350;20.898;2023-08-20T06:17:48;19.80;99.90
36654;DHT22;22650;49.350;20.898;2023-08-20T06:20:21;19.90;99.90
36654;DHT22;22650;49.350;20.898;2023-08-20T06:22:56;20.00;99.90
36654;DHT22;22650;49.350;20.898;2023-08-20T06:25:30;20.00;99.90
36654;DHT22;22650;49.350;20.898;2023-08-20T06:28:04;20.10;99.90
36654;DHT22;22650;49.350;20.898;2023-08-20T06:30:38;20.10;99.90
36654;DHT22;22650;49.350;20.898;2023-08-20T06:33:11;20.20;99.90
36654;DHT22;22650;49.350;20.898;2023-08-20T06:35:45;20.30;99.90
36654;DHT22;22650;49.350;20.898;2023-08-20T06:38:20;20.40;99.90
36654;DHT22;22650;49.350;20.898;2023-08-20T06:40:53;20.40;99.90
36654;DHT22;22650;49.350;20.898;2023-08-20T06:43:27;20.50;99.90
36654;DHT22;22650;49.350;20.898;2023-08-20T06:46:01;20.50;99.90
36654;DHT22;22650;49.350;20.898;2023-08-20T06:48:34;20.60;99.90
36654;DHT22;22650;49.350;20.898;2023-08-20T06:51:10;20.70;99.90
36654;DHT22;22650;49.350;20.898;2023-08-20T06:53:46;20.70;99.90
36654;DHT22;22650;49.350;20.898;2023-08-20T06:56:19;20.80;99.90
36654;DHT22;22650;49.350;20.898;2023-08-20T06:58:53;20.90;99.90
36654;DHT22;22650;49.350;20.898;2023-08-20T07:01:26;20.90;99.90
36654;DHT22;22650;49.350;20.898;2023-08-20T07:04:00;21.10;99.90
36654;DHT22;22650;49.350;20.898;2023-08-20T07:06:35;21.10;99.90
36654;DHT22;22650;49.350;20.898;2023-08-20T07:09:10;21.30;99.90
36654;DHT22;22650;49.350;20.898;2023-08-20T07:11:44;21.40;99.90
36654;DHT22;22650;49.350;20.898;2023-08-20T07:14:20;21.50;99.90
36654;DHT22;22650;49.350;20.898;2023-08-20T07:16:54;21.60;99.90
36654;DHT22;22650;49.350;20.898;2023-08-20T07:19:27;21.70;99.90
36654;DHT22;22650;49.350;20.898;2023-08-20T07:22:01;21.80;99.90
36654;DHT22;22650;49.350;20.898;2023-08-20T07:24:36;21.90;99.90
36654;DHT22;22650;49.350;20.898;2023-08-20T07:27:09;22.00;99.90
36654;DHT22;22650;49.350;20.898;2023-08-20T07:29:44;22.10;99.90
36654;DHT22;22650;49.350;20.898;2023-08-20T07:32:18;22.30;99.90
36654;DHT22;22650;49.350;20.898;2023-08-20T07:34:52;22.40;99.90
36654;DHT22;22650;49.350;20.898;2023-08-20T07:37:26;22.50;99.90
36654;DHT22;22650;49.350;20.898;2023-08-20T07:40:01;22.70;99.90
36654;DHT22;22650;49.350;20.898;2023-08-20T07:42:35;22.80;99.90
36654;DHT22;22650;49.350;20.898;2023-08-20T07:45:09;23.00;99.90
36654;DHT22;22650;49.350;20.898;2023-08-20T07:47:43;23.20;99.90
36654;DHT22;22650;49.350;20.898;2023-08-20T07:50:17;23.30;99.90
36654;DHT22;22650;49.350;20.898;2023-08-20T07:52:50;23.60;99.90
36654;DHT22;22650;49.350;20.898;2023-08-20T07:55:25;23.70;99.90
36654;DHT22;22650;49.350;20.898;2023-08-20T07:57:59;24.00;99.90
36654;DHT22;22650;49.350;20.898;2023-08-20T08:00:33;24.20;99.90
36654;DHT22;22650;49.350;20.898;2023-08-20T08:03:06;24.30;99.90
36654;DHT22;22650;49.350;20.898;2023-08-20T08:05:42;24.60;99.90
36654;DHT22;22650;49.350;20.898;2023-08-20T08:08:19;24.80;99.90
36654;DHT22;22650;49.350;20.898;2023-08-20T08:10:54;25.00;99.90
36654;DHT22;22650;49.350;20.898;2023-08-20T08:13:28;25.20;99.90
36654;DHT22;22650;49.350;20.898;2023-08-20T08:16:02;25.40;99.90
36654;DHT22;22650;49.350;20.898;2023-08-20T08:18:35;25.60;99.90
36654;DHT22;22650;49.350;20.898;2023-08-20T08:21:09;25.70;99.90
36654;DHT22;22650;49.350;20.898;2023-08-20T08:23:42;25.90;99.90
36654;DHT22;22650;49.350;20.898;2023-08-20T08:26:17;26.20;99.90
36654;DHT22;22650;49.350;20.898;2023-08-20T08:28:51;26.40;99.90
36654;DHT22;22650;49.350;20.898;2023-08-20T08:31:30;26.70;99.90
36654;DHT22;22650;49.350;20.898;2023-08-20T08:34:04;27.00;99.90
36654;DHT22;22650;49.350;20.898;2023-08-20T08:36:38;27.20;99.90
36654;DHT22;22650;49.350;20.898;2023-08-20T08:39:11;27.40;99.90
36654;DHT22;22650;49.350;20.898;2023-08-20T08:41:50;27.70;99.90
36654;DHT22;22650;49.350;20.898;2023-08-20T08:44:24;28.00;99.90
36654;DHT22;22650;49.350;20.898;2023-08-20T08:46:58;28.10;99.90
36654;DHT22;22650;49.350;20.898;2023-08-20T08:49:33;28.40;99.90
36654;DHT22;22650;49.350;20.898;2023-08-20T08:52:08;28.60;99.90
36654;DHT22;22650;49.350;20.898;2023-08-20T08:54:43;28.90;99.90
36654;DHT22;22650;49.350;20.898;2023-08-20T08:57:18;29.10;99.90
36654;DHT22;22650;49.350;20.898;2023-08-20T08:59:52;29.30;99.90
36654;DHT22;22650;49.350;20.898;2023-08-20T09:02:26;29.60;99.90
36654;DHT22;22650;49.350;20.898;2023-08-20T09:05:00;29.80;99.90
36654;DHT22;22650;49.350;20.898;2023-08-20T09:07:34;30.00;99.90
36654;DHT22;22650;49.350;20.898;2023-08-20T09:10:08;30.20;99.90
36654;DHT22;22650;49.350;20.898;2023-08-20T09:12:43;30.40;99.90
36654;DHT22;22650;49.350;20.898;2023-08-20T09:15:16;30.60;99.90
36654;DHT22;22650;49.350;20.898;2023-08-20T09:17:50;30.90;99.90
36654;DHT22;22650;49.350;20.898;2023-08-20T09:20:34;31.20;99.90
36654;DHT22;22650;49.350;20.898;2023-08-20T09:23:11;31.50;99.90
36654;DHT22;22650;49.350;20.898;2023-08-20T09:25:46;31.70;99.90
36654;DHT22;22650;49.350;20.898;2023-08-20T09:28:21;32.00;99.90
36654;DHT22;22650;49.350;20.898;2023-08-20T09:30:56;32.10;99.90
36654;DHT22;22650;49.350;20.898;2023-08-20T09:33:29;32.30;99.90
36654;DHT22;22650;49.350;20.898;2023-08-20T09:36:04;32.50;99.90
36654;DHT22;22650;49.350;20.898;2023-08-20T09:38:37;32.70;99.90
36654;DHT22;22650;49.350;20.898;2023-08-20T09:41:12;32.90;99.90
36654;DHT22;22650;49.350;20.898;2023-08-20T09:43:48;33.00;99.90
36654;DHT22;22650;49.350;20.898;2023-08-20T09:46:27;33.20;99.60
36654;DHT22;22650;49.350;20.898;2023-08-20T09:49:05;33.50;98.20
36654;DHT22;22650;49.350;20.898;2023-08-20T09:51:41;33.70;98.00
36654;DHT22;22650;49.350;20.898;2023-08-20T09:54:19;33.90;96.00
36654;DHT22;22650;49.350;20.898;2023-08-20T09:56:58;34.20;95.30
36654;DHT22;22650;49.350;20.898;2023-08-20T09:59:35;34.30;92.70
36654;DHT22;22650;49.350;20.898;2023-08-20T10:02:12;34.30;92.60
36654;DHT22;22650;49.350;20.898;2023-08-20T10:04:47;34.40;91.30
36654;DHT22;22650;49.350;20.898;2023-08-20T10:07:23;34.40;91.10
36654;DHT22;22650;49.350;20.898;2023-08-20T10:09:58;34.30;92.10
36654;DHT22;22650;49.350;20.898;2023-08-20T10:12:33;34.20;92.00
36654;DHT22;22650;49.350;20.898;2023-08-20T10:15:10;34.10;92.00
36654;DHT22;22650;49.350;20.898;2023-08-20T10:17:44;34.00;91.10
36654;DHT22;22650;49.350;20.898;2023-08-20T10:20:18;33.80;89.70
36654;DHT22;22650;49.350;20.898;2023-08-20T10:22:52;33.70;89.50
36654;DHT22;22650;49.350;20.898;2023-08-20T10:25:26;33.60;90.60
36654;DHT22;22650;49.350;20.898;2023-08-20T10:28:12;33.50;92.10
36654;DHT22;22650;49.350;20.898;2023-08-20T10:31:12;33.50;92.80
36654;DHT22;22650;49.350;20.898;2023-08-20T10:33:50;33.70;91.40
36654;DHT22;22650;49.350;20.898;2023-08-20T10:36:24;33.70;90.30
36654;DHT22;22650;49.350;20.898;2023-08-20T10:39:05;33.80;88.00
36654;DHT22;22650;49.350;20.898;2023-08-20T10:41:38;34.00;85.20
36654;DHT22;22650;49.350;20.898;2023-08-20T10:44:12;34.00;88.20
36654;DHT22;22650;49.350;20.898;2023-08-20T10:46:51;33.90;86.80
36654;DHT22;22650;49.350;20.898;2023-08-20T10:49:27;33.70;82.90
36654;DHT22;22650;49.350;20.898;2023-08-20T10:52:02;33.50;86.80
36654;DHT22;22650;49.350;20.898;2023-08-20T10:54:35;33.30;84.60
36654;DHT22;22650;49.350;20.898;2023-08-20T10:57:09;33.30;85.10
36654;DHT22;22650;49.350;20.898;2023-08-20T10:59:43;33.50;88.80
36654;DHT22;22650;49.350;20.898;2023-08-20T11:02:19;33.70;87.90
36654;DHT22;22650;49.350;20.898;2023-08-20T11:04:54;34.00;90.00
36654;DHT22;22650;49.350;20.898;2023-08-20T11:07:28;34.30;87.00
36654;DHT22;22650;49.350;20.898;2023-08-20T11:10:06;34.50;86.70
36654;DHT22;22650;49.350;20.898;2023-08-20T11:12:41;34.60;85.00
36654;DHT22;22650;49.350;20.898;2023-08-20T11:15:14;34.70;83.60
36654;DHT22;22650;49.350;20.898;2023-08-20T11:17:49;34.70;82.50
36654;DHT22;22650;49.350;20.898;2023-08-20T11:20:23;34.60;82.20
36654;DHT22;22650;49.350;20.898;2023-08-20T11:22:57;34.60;83.70
36654;DHT22;22650;49.350;20.898;2023-08-20T11:25:31;34.60;81.30
36654;DHT22;22650;49.350;20.898;2023-08-20T11:28:05;34.70;80.70
36654;DHT22;22650;49.350;20.898;2023-08-20T11:30:38;34.80;78.80
36654;DHT22;22650;49.350;20.898;2023-08-20T11:33:14;34.90;78.70
36654;DHT22;22650;49.350;20.898;2023-08-20T11:35:48;34.90;79.80
36654;DHT22;22650;49.350;20.898;2023-08-20T11:38:23;34.70;79.70
36654;DHT22;22650;49.350;20.898;2023-08-20T11:40:58;34.60;77.70
36654;DHT22;22650;49.350;20.898;2023-08-20T11:43:32;34.50;78.60
36654;DHT22;22650;49.350;20.898;2023-08-20T11:46:13;34.60;79.10
36654;DHT22;22650;49.350;20.898;2023-08-20T11:49:01;34.70;75.90
36654;DHT22;22650;49.350;20.898;2023-08-20T11:51:36;34.70;74.40
36654;DHT22;22650;49.350;20.898;2023-08-20T11:54:11;34.70;76.70
36654;DHT22;22650;49.350;20.898;2023-08-20T11:56:46;34.60;77.30
36654;DHT22;22650;49.350;20.898;2023-08-20T11:59:20;34.40;76.80
36654;DHT22;22650;49.350;20.898;2023-08-20T12:01:56;34.20;77.40
36654;DHT22;22650;49.350;20.898;2023-08-20T12:04:31;34.10;77.70
36654;DHT22;22650;49.350;20.898;2023-08-20T12:07:12;34.10;80.20
36654;DHT22;22650;49.350;20.898;2023-08-20T12:09:46;34.10;82.70
36654;DHT22;22650;49.350;20.898;2023-08-20T12:12:21;34.20;82.20
36654;DHT22;22650;49.350;20.898;2023-08-20T12:14:54;34.30;79.10
36654;DHT22;22650;49.350;20.898;2023-08-20T12:17:28;34.40;79.70
36654;DHT22;22650;49.350;20.898;2023-08-20T12:20:04;34.50;78.20
36654;DHT22;22650;49.350;20.898;2023-08-20T12:22:44;34.80;76.50
36654;DHT22;22650;49.350;20.898;2023-08-20T12:25:18;34.80;75.30
36654;DHT22;22650;49.350;20.898;2023-08-20T12:27:51;35.00;76.20
36654;DHT22;22650;49.350;20.898;2023-08-20T12:30:25;35.10;76.90
36654;DHT22;22650;49.350;20.898;2023-08-20T12:32:59;35.00;74.00
36654;DHT22;22650;49.350;20.898;2023-08-20T12:35:34;35.10;74.50
36654;DHT22;22650;49.350;20.898;2023-08-20T12:38:08;35.20;74.20
36654;DHT22;22650;49.350;20.898;2023-08-20T12:40:42;35.40;74.20
36654;DHT22;22650;49.350;20.898;2023-08-20T12:43:16;35.60;76.50
36654;DHT22;22650;49.350;20.898;2023-08-20T12:45:49;35.90;76.90
36654;DHT22;22650;49.350;20.898;2023-08-20T12:48:23;36.20;75.50
36654;DHT22;22650;49.350;20.898;2023-08-20T12:50:58;36.40;73.40
36654;DHT22;22650;49.350;20.898;2023-08-20T12:53:32;36.40;71.80
36654;DHT22;22650;49.350;20.898;2023-08-20T12:56:07;36.50;73.40
36654;DHT22;22650;49.350;20.898;2023-08-20T12:58:41;36.60;74.10
36654;DHT22;22650;49.350;20.898;2023-08-20T13:01:15;36.70;72.20
36654;DHT22;22650;49.350;20.898;2023-08-20T13:03:50;36.70;72.40
36654;DHT22;22650;49.350;20.898;2023-08-20T13:06:27;36.80;70.10
36654;DHT22;22650;49.350;20.898;2023-08-20T13:09:01;36.80;69.60
36654;DHT22;22650;49.350;20.898;2023-08-20T13:11:36;36.80;69.50
36654;DHT22;22650;49.350;20.898;2023-08-20T13:14:11;36.60;68.30
36654;DHT22;22650;49.350;20.898;2023-08-20T13:16:46;36.50;68.90
36654;DHT22;22650;49.350;20.898;2023-08-20T13:19:19;36.40;69.00
36654;DHT22;22650;49.350;20.898;2023-08-20T13:21:55;36.20;71.20
36654;DHT22;22650;49.350;20.898;2023-08-20T13:24:28;36.10;70.10
36654;DHT22;22650;49.350;20.898;2023-08-20T13:27:02;36.00;70.50
36654;DHT22;22650;49.350;20.898;2023-08-20T13:29:36;35.90;69.90
36654;DHT22;22650;49.350;20.898;2023-08-20T13:32:09;35.80;69.20
36654;DHT22;22650;49.350;20.898;2023-08-20T13:34:43;35.80;69.40
36654;DHT22;22650;49.350;20.898;2023-08-20T13:37:18;35.80;70.10
36654;DHT22;22650;49.350;20.898;2023-08-20T13:39:52;35.80;70.20
36654;DHT22;22650;49.350;20.898;2023-08-20T13:42:25;35.90;69.70
36654;DHT22;22650;49.350;20.898;2023-08-20T13:44:59;36.00;69.00
36654;DHT22;22650;49.350;20.898;2023-08-20T13:47:33;36.00;69.00
36654;DHT22;22650;49.350;20.898;2023-08-20T13:50:07;35.90;68.90
36654;DHT22;22650;49.350;20.898;2023-08-20T13:52:43;35.90;68.10
36654;DHT22;22650;49.350;20.898;2023-08-20T13:55:17;35.90;67.80
36654;DHT22;22650;49.350;20.898;2023-08-20T13:57:50;35.80;68.70
36654;DHT22;22650;49.350;20.898;2023-08-20T14:00:24;35.80;70.40
36654;DHT22;22650;49.350;20.898;2023-08-20T14:02:58;35.80;69.30
36654;DHT22;22650;49.350;20.898;2023-08-20T14:05:32;35.70;70.90
36654;DHT22;22650;49.350;20.898;2023-08-20T14:08:07;35.80;71.90
36654;DHT22;22650;49.350;20.898;2023-08-20T14:10:41;35.60;70.40
36654;DHT22;22650;49.350;20.898;2023-08-20T14:13:14;35.60;71.70
36654;DHT22;22650;49.350;20.898;2023-08-20T14:15:48;35.50;71.10
36654;DHT22;22650;49.350;20.898;2023-08-20T14:18:21;35.40;71.70
36654;DHT22;22650;49.350;20.898;2023-08-20T14:20:55;35.40;71.60
36654;DHT22;22650;49.350;20.898;2023-08-20T14:23:30;35.40;72.10
36654;DHT22;22650;49.350;20.898;2023-08-20T14:26:05;35.40;72.60
36654;DHT22;22650;49.350;20.898;2023-08-20T14:28:39;35.30;71.60
36654;DHT22;22650;49.350;20.898;2023-08-20T14:31:13;35.20;72.00
36654;DHT22;22650;49.350;20.898;2023-08-20T14:33:47;35.10;78.80
36654;DHT22;22650;49.350;20.898;2023-08-20T14:36:21;35.00;76.70
36654;DHT22;22650;49.350;20.898;2023-08-20T14:38:56;34.90;75.30
36654;DHT22;22650;49.350;20.898;2023-08-20T14:41:29;34.80;76.30
36654;DHT22;22650;49.350;20.898;2023-08-20T14:44:03;34.60;76.00
36654;DHT22;22650;49.350;20.898;2023-08-20T14:46:37;34.60;74.50
36654;DHT22;22650;49.350;20.898;2023-08-20T14:49:11;34.50;74.40
36654;DHT22;22650;49.350;20.898;2023-08-20T14:51:46;34.50;74.40
36654;DHT22;22650;49.350;20.898;2023-08-20T14:54:21;34.30;73.80
36654;DHT22;22650;49.350;20.898;2023-08-20T14:56:55;34.30;75.30
36654;DHT22;22650;49.350;20.898;2023-08-20T14:59:28;34.20;76.00
36654;DHT22;22650;49.350;20.898;2023-08-20T15:02:03;34.00;75.40
36654;DHT22;22650;49.350;20.898;2023-08-20T15:04:36;33.90;77.20
36654;DHT22;22650;49.350;20.898;2023-08-20T15:07:10;33.90;76.60
36654;DHT22;22650;49.350;20.898;2023-08-20T15:09:45;33.90;74.60
36654;DHT22;22650;49.350;20.898;2023-08-20T15:12:19;33.70;76.10
36654;DHT22;22650;49.350;20.898;2023-08-20T15:14:52;33.60;75.00
36654;DHT22;22650;49.350;20.898;2023-08-20T15:17:26;33.50;75.10
36654;DHT22;22650;49.350;20.898;2023-08-20T15:20:00;33.30;74.30
36654;DHT22;22650;49.350;20.898;2023-08-20T15:22:34;33.20;75.40
36654;DHT22;22650;49.350;20.898;2023-08-20T15:25:10;33.20;77.00
36654;DHT22;22650;49.350;20.898;2023-08-20T15:27:43;33.10;77.60
36654;DHT22;22650;49.350;20.898;2023-08-20T15:30:17;33.00;77.20
36654;DHT22;22650;49.350;20.898;2023-08-20T15:32:57;32.90;77.90
36654;DHT22;22650;49.350;20.898;2023-08-20T15:35:31;32.90;77.20
36654;DHT22;22650;49.350;20.898;2023-08-20T15:38:04;32.80;77.50
36654;DHT22;22650;49.350;20.898;2023-08-20T15:40:40;32.80;77.50
36654;DHT22;22650;49.350;20.898;2023-08-20T15:43:14;32.70;77.20
36654;DHT22;22650;49.350;20.898;2023-08-20T15:45:47;32.60;77.80
36654;DHT22;22650;49.350;20.898;2023-08-20T15:48:21;32.50;77.60
36654;DHT22;22650;49.350;20.898;2023-08-20T15:50:55;32.40;77.20
36654;DHT22;22650;49.350;20.898;2023-08-20T15:53:29;32.30;76.90
36654;DHT22;22650;49.350;20.898;2023-08-20T15:56:04;32.30;77.60
36654;DHT22;22650;49.350;20.898;2023-08-20T15:58:38;32.20;78.00
36654;DHT22;22650;49.350;20.898;2023-08-20T16:01:11;32.20;78.40